Hlavní strana
METAR-TAF:

METAR-TAF

Letiště :

Joensuu, Finsko

zeměpisná šířka: 62-40N, zeměpisná délka: 029-38E, výška: 119 m

Aktuální stav počasí

Zpráva byla vytvořena před 29 minutami, v 13:50 UTC
Západojihozápadní vítr 4 kt, proměnlivý mezi jihozápadním a západoseverozápadním
Teplota -7°C
Vlhkost vzduchu 53%
Tlak 1035 hPa
Viditelnost 10 km a více
Žádná oblačnost pod 1500 m, nevyskytují se cumulonimby.

METAR: EFJO 221350Z AUTO 24004KT 220V290 CAVOK M07/M15 Q1035

Čas: 16:19 (14:19 UTC)

Předpověď počasí

Zpráva byla vytvořena před 2 hodinami a 47 minutami, v 11:32 UTC
Předpověď platná od 22 v 12 UTC do 22 v 21 UTC
Západoseverozápadní vítr 5 kt
Viditelnost 10 km a více
Žádná oblačnost pod 1500 m, nevyskytují se cumulonimby.

TAF: EFJO 221132Z 2212/2221 29005KT CAVOK

Stav a předpovědi počasí z více než 4 000 letišť (zprávy METAR a TAF).

Červené a žluté tečky na mapě představují dostupné meteorologické stanice.

Když kurzor umístíte na tečku, zobrazí se název stanice.

Pak kliknutím zobrazíte stav a předpověď počasí.

Chcete-li změnit mapu, kliknutím na zelené tlačítko se znaménkem +mapu přiblížíte, kliknutím na zelené tlačítko se znaménkem – mapu oddálíte a kliknutím na zelené šipky přejdete na sousední mapy.


METAR-TAF: